Terminal Aerodrome Forecast
Issued by NWS

Home | Current Version | Previous Version | Text Only | Print | Product List | Glossary On
Versions: 1 2 3 4 5 6 7 8 9 10 11 12 13 14 15 16 17 18 19 20 21 22 23 24 25 26 27 28
978
FTUS41 KOKX 270836 AAA
TAFSWF
TAF AMD
KSWF 270836Z 2709/2812 24005KT P6SM SKC
     FM271500 26010KT P6SM SCT100
     FM271600 26014G21KT P6SM SCT080 SCT100
     FM272200 24008KT P6SM SCT070 SCT110
     FM280100 22004KT P6SM SCT050 BKN090
     FM280400 22004KT P6SM BKN060
      AMD NOT SKED=

USA.gov is the U.S. government's official web portal to all federal, state and local government web resources and services.